Time;durP1;ratioP1;P1;durP2;ratioP2;P2;SDS_P1;SDS_P2;PMS_P1;PMS_P2;Temp;Humidity;BMP_temperature;BMP_pressure;BME280_temperature;BME280_humidity;BME280_pressure;Samples;Min_cycle;Max_cycle;Signal;HPM_P1;HPM_P2
2021/07/20 00:01:15;;;;;;;15.07;7.60;;;17.90;49.10;;;;;;5051035;28;20022;-85
2021/07/20 00:03:41;;;;;;;13.68;7.25;;;17.90;48.60;;;;;;5050943;28;20026;-85
2021/07/20 00:06:06;;;;;;;12.88;8.07;;;17.80;48.70;;;;;;5034990;28;20030;-85
2021/07/20 00:08:32;;;;;;;13.35;7.50;;;17.80;48.80;;;;;;5017356;28;20038;-85
2021/07/20 00:11:00;;;;;;;13.50;7.82;;;17.80;49.00;;;;;;5050862;28;20123;-85
2021/07/20 00:13:26;;;;;;;13.50;7.78;;;17.70;48.90;;;;;;5052346;28;20076;-86
2021/07/20 00:15:54;;;;;;;15.07;7.78;;;17.60;49.00;;;;;;5051660;28;20473;-86
2021/07/20 00:18:38;;;;;;;14.98;7.90;;;17.50;49.00;;;;;;5035307;28;20596;-86
2021/07/20 00:21:06;;;;;;;15.18;7.18;;;17.50;49.30;;;;;;5050490;28;20029;-85
2021/07/20 00:23:33;;;;;;;14.63;7.53;;;17.40;49.20;;;;;;5034966;28;20100;-86
2021/07/20 00:25:58;;;;;;;13.15;7.38;;;17.30;49.40;;;;;;5033731;28;20036;-85
2021/07/20 00:28:25;;;;;;;13.73;7.88;;;17.30;49.40;;;;;;5033693;28;20037;-85
2021/07/20 00:30:51;;;;;;;14.45;8.15;;;17.30;49.70;;;;;;5050086;28;20041;-86
2021/07/20 00:33:18;;;;;;;13.50;8.48;;;17.20;50.00;;;;;;5034426;28;20063;-85
2021/07/20 00:35:44;;;;;;;12.48;7.40;;;17.20;49.90;;;;;;5052448;28;20458;-86
2021/07/20 00:38:11;;;;;;;13.40;8.00;;;17.10;50.00;;;;;;5036888;28;20371;-86
2021/07/20 00:40:40;;;;;;;14.35;8.25;;;17.00;50.10;;;;;;5054436;28;20017;-85
2021/07/20 00:43:06;;;;;;;12.98;7.40;;;17.00;50.20;;;;;;5036550;28;20499;-85
2021/07/20 00:45:33;;;;;;;14.80;8.23;;;17.00;50.30;;;;;;5053030;28;20029;-86
2021/07/20 00:47:59;;;;;;;15.43;8.18;;;16.80;50.40;;;;;;5053025;28;20083;-85
2021/07/20 00:50:28;;;;;;;13.55;8.27;;;16.80;50.50;;;;;;5036480;28;20049;-86
2021/07/20 00:52:53;;;;;;;18.02;9.23;;;16.80;51.30;;;;;;5053181;28;20025;-84
2021/07/20 00:55:20;;;;;;;12.68;7.68;;;16.70;50.70;;;;;;5053140;28;20138;-84
2021/07/20 00:57:46;;;;;;;14.95;8.05;;;16.60;50.80;;;;;;5052696;28;20064;-84
2021/07/20 01:00:15;;;;;;;14.35;8.18;;;16.60;50.90;;;;;;5054451;28;20032;-85
2021/07/20 01:02:41;;;;;;;16.10;8.77;;;16.60;51.10;;;;;;5053142;28;20031;-84
2021/07/20 01:05:16;;;;;;;16.98;8.52;;;16.60;51.10;;;;;;5052736;28;20033;-84
2021/07/20 01:07:46;;;;;;;12.88;7.70;;;16.50;51.30;;;;;;5053759;28;20021;-84
2021/07/20 01:10:13;;;;;;;13.88;8.15;;;16.50;51.50;;;;;;5053084;28;20116;-84
2021/07/20 01:12:42;;;;;;;15.02;8.18;;;16.50;51.60;;;;;;5052702;28;20033;-84
2021/07/20 01:15:09;;;;;;;16.92;8.93;;;16.40;51.70;;;;;;5052718;28;20492;-86
2021/07/20 01:17:36;;;;;;;14.63;8.48;;;16.40;51.70;;;;;;5052802;28;20043;-86
2021/07/20 01:20:07;;;;;;;13.05;7.75;;;16.30;51.70;;;;;;5054041;28;20025;-85
2021/07/20 01:22:34;;;;;;;18.20;7.82;;;16.30;51.80;;;;;;5035756;28;20056;-85
2021/07/20 01:25:09;;;;;;;13.63;7.82;;;16.20;51.80;;;;;;5053859;28;20063;-85
2021/07/20 01:27:43;;;;;;;16.50;8.45;;;16.20;52.10;;;;;;5036603;28;20116;-85
2021/07/20 01:30:09;;;;;;;14.90;7.95;;;16.10;51.90;;;;;;5052236;28;20036;-85
2021/07/20 01:32:36;;;;;;;15.00;8.45;;;16.10;51.90;;;;;;5036052;28;20401;-84
2021/07/20 01:35:04;;;;;;;13.85;8.07;;;16.10;52.70;;;;;;5053548;28;20055;-85
2021/07/20 01:37:30;;;;;;;13.30;8.10;;;16.00;52.20;;;;;;5053566;28;20025;-85
2021/07/20 01:39:57;;;;;;;18.70;8.15;;;15.90;52.20;;;;;;5035676;28;20115;-85
2021/07/20 01:42:23;;;;;;;15.27;7.97;;;16.00;52.40;;;;;;5035875;28;20029;-85
2021/07/20 01:44:50;;;;;;;15.20;7.68;;;15.90;52.50;;;;;;5052221;28;20111;-85
2021/07/20 01:47:17;;;;;;;14.15;8.57;;;15.90;52.60;;;;;;5068789;28;20033;-84
2021/07/20 01:49:44;;;;;;;15.32;8.70;;;15.90;52.70;;;;;;5051929;28;20481;-84
2021/07/20 01:52:11;;;;;;;13.95;8.25;;;15.80;52.80;;;;;;5051963;28;20128;-84
2021/07/20 01:54:41;;;;;;;16.60;8.30;;;15.90;52.90;;;;;;5052013;28;20116;-84
2021/07/20 01:57:06;;;;;;;13.43;7.78;;;15.80;52.90;;;;;;5053806;28;20021;-84
2021/07/20 01:59:33;;;;;;;15.73;7.78;;;15.70;53.00;;;;;;5052958;28;20033;-84
2021/07/20 02:02:24;;;;;;;14.80;6.85;;;15.70;53.10;;;;;;5053437;28;20033;-83
2021/07/20 02:10:20;;;;;;;;;;;15.70;53.10;;;;;;5053888;28;20036;-88
2021/07/20 02:12:46;;;;;;;13.68;7.85;;;15.60;52.70;;;;;;5054460;28;19913;-89
2021/07/20 02:15:12;;;;;;;14.10;8.10;;;15.60;53.80;;;;;;5036677;28;20155;-89
2021/07/20 02:17:40;;;;;;;14.88;8.98;;;15.50;53.20;;;;;;5036629;28;20412;-90
2021/07/20 02:20:16;;;;;;;15.20;7.85;;;15.50;53.40;;;;;;5054280;28;20025;-90
2021/07/20 02:22:42;;;;;;;16.83;8.55;;;15.50;53.50;;;;;;5053909;28;20021;-90
2021/07/20 02:25:11;;;;;;;14.68;8.65;;;15.50;53.50;;;;;;5036739;28;20040;-89
2021/07/20 02:27:37;;;;;;;15.65;8.13;;;15.40;53.70;;;;;;5053143;28;20556;-92
2021/07/20 02:30:10;;;;;;;16.38;8.60;;;15.40;53.60;;;;;;5036638;28;20074;-92
2021/07/20 02:32:37;;;;;;;18.02;9.32;;;15.30;53.90;;;;;;5052901;28;20112;-92
2021/07/20 02:35:05;;;;;;;19.55;9.60;;;15.30;53.80;;;;;;5032731;28;20393;-89
2021/07/20 02:37:33;;;;;;;16.27;8.23;;;15.30;53.90;;;;;;5033014;28;20026;-89
2021/07/20 02:40:03;;;;;;;14.45;8.32;;;15.30;53.90;;;;;;5049297;28;20045;-90
2021/07/20 02:42:29;;;;;;;16.60;8.05;;;15.20;54.10;;;;;;5032998;28;20036;-90
2021/07/20 02:44:56;;;;;;;14.25;7.78;;;15.20;54.20;;;;;;5032611;28;20048;-89
2021/07/20 02:47:22;;;;;;;16.52;8.23;;;15.20;54.40;;;;;;5049242;28;20056;-89
2021/07/20 02:49:50;;;;;;;15.93;8.23;;;15.10;54.40;;;;;;5049276;28;20029;-90
2021/07/20 02:52:16;;;;;;;16.15;8.73;;;15.10;54.50;;;;;;5049132;28;20049;-90
2021/07/20 02:54:43;;;;;;;18.67;8.75;;;15.10;54.50;;;;;;5049402;28;20079;-90
2021/07/20 02:57:08;;;;;;;16.27;8.27;;;15.00;54.50;;;;;;5049008;28;20129;-90
2021/07/20 02:59:35;;;;;;;16.10;8.48;;;15.10;54.60;;;;;;5052340;28;20117;-90
2021/07/20 03:02:04;;;;;;;16.65;9.27;;;15.00;54.70;;;;;;5036464;28;20030;-90
2021/07/20 03:04:33;;;;;;;14.98;8.50;;;14.90;54.80;;;;;;5053016;28;20025;-90
2021/07/20 03:07:02;;;;;;;15.77;8.70;;;14.90;54.90;;;;;;5052644;28;20026;-89
2021/07/20 03:09:30;;;;;;;15.60;8.68;;;14.90;54.90;;;;;;5052635;28;20024;-92
2021/07/20 03:12:09;;;;;;;15.85;8.10;;;14.90;55.00;;;;;;5053323;28;20041;-92
2021/07/20 03:14:35;;;;;;;15.52;7.97;;;14.80;55.10;;;;;;5053536;28;20157;-93
2021/07/20 03:17:01;;;;;;;17.17;8.27;;;14.80;55.00;;;;;;5053692;28;20030;-92
2021/07/20 03:19:30;;;;;;;19.52;8.52;;;14.80;55.00;;;;;;5020134;28;20482;-92
2021/07/20 03:22:00;;;;;;;16.90;8.13;;;14.80;55.10;;;;;;5052720;28;20116;-93
2021/07/20 03:24:26;;;;;;;15.40;7.68;;;14.60;55.20;;;;;;5037429;28;20022;-93
2021/07/20 03:26:53;;;;;;;15.45;7.95;;;14.60;55.20;;;;;;5036465;28;20367;-92
2021/07/20 03:29:22;;;;;;;16.17;8.48;;;14.60;55.30;;;;;;5053031;28;20032;-92
2021/07/20 03:31:49;;;;;;;17.23;8.48;;;14.60;55.50;;;;;;5052587;28;20495;-92
2021/07/20 03:34:16;;;;;;;18.08;8.50;;;14.50;55.50;;;;;;5036770;28;20040;-92
2021/07/20 03:36:42;;;;;;;17.13;8.52;;;14.50;55.60;;;;;;5036154;28;20467;-92
2021/07/20 03:39:12;;;;;;;15.68;7.93;;;14.50;55.70;;;;;;5052549;28;20060;-92
2021/07/20 03:41:38;;;;;;;20.38;9.50;;;14.50;55.90;;;;;;5052319;28;20501;-91
2021/07/20 03:44:05;;;;;;;17.23;8.65;;;14.50;55.80;;;;;;5052774;28;20431;-92
2021/07/20 03:46:32;;;;;;;15.77;7.97;;;14.50;55.90;;;;;;5052229;28;20060;-91
2021/07/20 03:48:58;;;;;;;17.02;8.45;;;14.40;55.90;;;;;;5052631;28;20385;-92
2021/07/20 03:51:25;;;;;;;16.60;7.65;;;14.50;56.00;;;;;;5035607;28;20057;-88
2021/07/20 03:53:52;;;;;;;19.15;9.23;;;14.40;56.10;;;;;;5051402;28;20017;-88
2021/07/20 03:56:19;;;;;;;17.45;8.77;;;14.40;56.20;;;;;;5051559;28;20540;-88
2021/07/20 03:58:47;;;;;;;18.20;8.70;;;14.40;56.20;;;;;;5051243;28;20037;-90
2021/07/20 04:01:37;;;;;;;18.63;9.00;;;14.40;56.40;;;;;;5053046;28;20080;-90
2021/07/20 04:04:12;;;;;;;18.23;7.93;;;14.40;56.60;;;;;;5056882;28;20120;-91
2021/07/20 04:06:40;;;;;;;17.63;8.95;;;14.40;56.40;;;;;;5062584;28;20020;-91
2021/07/20 04:09:09;;;;;;;18.60;9.10;;;14.50;56.50;;;;;;5061985;28;20025;-90
2021/07/20 04:11:35;;;;;;;17.75;9.00;;;14.40;56.60;;;;;;5052513;28;20037;-91
2021/07/20 04:14:04;;;;;;;20.65;9.07;;;14.50;56.70;;;;;;5052003;28;20041;-90
2021/07/20 04:16:32;;;;;;;16.15;9.23;;;14.50;56.90;;;;;;5052131;28;20029;-89
2021/07/20 04:19:36;;;;;;;18.73;8.88;;;14.50;57.00;;;;;;5051302;28;20029;-89
2021/07/20 04:22:04;;;;;;;14.43;7.32;;;14.50;57.10;;;;;;5035164;28;20021;-91
2021/07/20 04:24:33;;;;;;;17.50;8.65;;;14.60;56.90;;;;;;5051258;28;20536;-91
2021/07/20 04:27:02;;;;;;;16.58;7.68;;;14.50;57.20;;;;;;5051515;28;20083;-93
2021/07/20 04:29:28;;;;;;;17.33;8.50;;;14.60;57.10;;;;;;5051402;28;20029;-92
2021/07/20 04:31:58;;;;;;;20.13;9.85;;;14.60;57.20;;;;;;5051513;28;20048;-92
2021/07/20 04:34:24;;;;;;;18.10;9.65;;;14.70;57.40;;;;;;5051409;28;20033;-93
2021/07/20 04:36:51;;;;;;;18.95;9.30;;;14.70;57.40;;;;;;5054524;28;20362;-89
2021/07/20 04:39:18;;;;;;;19.25;9.15;;;14.80;57.60;;;;;;5047876;28;20055;-89
2021/07/20 04:41:46;;;;;;;18.50;9.13;;;14.80;57.70;;;;;;5035016;28;20029;-88
2021/07/20 04:44:14;;;;;;;19.27;8.25;;;14.80;57.70;;;;;;5017792;28;20060;-89
2021/07/20 04:46:40;;;;;;;14.60;7.95;;;14.90;57.80;;;;;;5034097;28;20029;-89
2021/07/20 04:49:06;;;;;;;16.38;8.68;;;14.90;57.80;;;;;;5017478;28;20025;-89
2021/07/20 04:51:32;;;;;;;15.35;8.55;;;14.90;58.00;;;;;;5033506;28;20106;-89
2021/07/20 04:54:04;;;;;;;16.33;8.35;;;15.00;58.10;;;;;;5033701;28;20565;-88
2021/07/20 04:56:30;;;;;;;15.48;7.93;;;15.00;58.10;;;;;;5050986;28;20037;-89
2021/07/20 04:58:57;;;;;;;15.75;7.82;;;15.10;58.20;;;;;;5017521;28;20056;-88
2021/07/20 05:01:24;;;;;;;15.38;8.27;;;15.10;58.40;;;;;;5017586;28;20543;-89
2021/07/20 05:03:51;;;;;;;15.30;8.23;;;15.20;58.40;;;;;;5033603;28;20029;-82
2021/07/20 05:06:19;;;;;;;17.30;8.57;;;15.20;58.40;;;;;;5034136;28;20029;-81
2021/07/20 05:08:45;;;;;;;15.43;7.43;;;15.20;58.50;;;;;;5034452;28;20079;-82
2021/07/20 05:11:12;;;;;;;15.20;8.30;;;15.30;58.50;;;;;;5035146;28;20025;-81
2021/07/20 05:13:38;;;;;;;16.50;7.68;;;15.50;58.70;;;;;;5033505;28;20402;-81
2021/07/20 05:16:05;;;;;;;13.73;7.95;;;15.50;58.60;;;;;;5034344;28;20082;-81
2021/07/20 05:18:36;;;;;;;14.95;7.47;;;15.50;58.70;;;;;;5036009;28;20524;-80
2021/07/20 05:21:04;;;;;;;15.20;8.05;;;15.60;58.90;;;;;;5033772;28;20037;-81
2021/07/20 05:23:30;;;;;;;16.67;8.98;;;15.60;58.90;;;;;;5034022;28;20025;-80
2021/07/20 05:25:59;;;;;;;15.48;8.23;;;15.70;59.00;;;;;;5016171;28;20034;-84
2021/07/20 05:28:29;;;;;;;18.95;8.48;;;15.80;59.00;;;;;;5033860;28;20025;-84
2021/07/20 05:30:57;;;;;;;16.33;8.77;;;15.80;59.00;;;;;;5033894;28;20037;-83
2021/07/20 05:33:23;;;;;;;14.80;7.90;;;15.90;59.20;;;;;;5032968;28;20405;-83
2021/07/20 05:35:54;;;;;;;18.00;8.35;;;15.90;59.20;;;;;;5044089;28;20021;-83
2021/07/20 05:38:20;;;;;;;14.75;8.10;;;15.90;59.20;;;;;;5054522;28;20025;-92
2021/07/20 05:40:48;;;;;;;15.32;7.78;;;16.00;59.30;;;;;;5055470;28;20111;-94
2021/07/20 05:43:14;;;;;;;15.18;7.28;;;16.10;59.40;;;;;;5042504;28;20021;-94
2021/07/20 05:45:42;;;;;;;14.18;7.75;;;16.20;59.60;;;;;;5061466;28;20591;-95
2021/07/20 05:48:08;;;;;;;12.48;6.88;;;16.20;59.60;;;;;;5057038;28;20021;-94
2021/07/20 05:50:36;;;;;;;12.57;7.43;;;16.20;59.60;;;;;;5055523;28;20512;-93
2021/07/20 05:53:02;;;;;;;13.07;7.10;;;16.30;59.70;;;;;;5022328;28;20025;-95
2021/07/20 05:55:32;;;;;;;13.55;7.00;;;16.40;59.70;;;;;;5056148;28;20029;-95
2021/07/20 05:58:08;;;;;;;12.00;7.07;;;16.40;59.70;;;;;;5059541;28;20053;-93
2021/07/20 06:00:34;;;;;;;14.63;6.40;;;16.50;59.90;;;;;;5032956;28;20481;-83
2021/07/20 06:03:00;;;;;;;12.77;6.72;;;16.50;59.80;;;;;;5016184;28;20045;-85
2021/07/20 06:05:32;;;;;;;13.32;6.63;;;16.60;59.80;;;;;;5034273;28;20464;-85
2021/07/20 06:07:58;;;;;;;13.02;6.43;;;16.60;59.90;;;;;;5085042;28;20037;-85
2021/07/20 06:10:24;;;;;;;10.77;5.93;;;16.80;60.70;;;;;;5051989;28;20518;-86
2021/07/20 06:12:56;;;;;;;12.05;5.95;;;16.90;60.40;;;;;;5045010;28;20101;-86
2021/07/20 06:15:25;;;;;;;12.27;6.03;;;17.00;60.70;;;;;;5055774;28;20028;-86
2021/07/20 06:17:50;;;;;;;13.93;6.68;;;17.20;60.90;;;;;;5052597;28;20131;-87
2021/07/20 06:20:16;;;;;;;11.50;5.97;;;17.40;60.90;;;;;;5052596;28;20500;-87
2021/07/20 06:22:51;;;;;;;13.38;6.05;;;17.60;60.80;;;;;;5052198;28;20032;-87
2021/07/20 06:25:22;;;;;;;12.50;6.40;;;17.70;60.70;;;;;;5052472;28;20049;-87
2021/07/20 06:27:49;;;;;;;12.48;5.85;;;17.80;60.50;;;;;;5052679;28;20469;-86
2021/07/20 06:30:16;;;;;;;11.27;5.90;;;17.90;60.30;;;;;;5053246;28;20071;-87
2021/07/20 06:32:43;;;;;;;14.30;6.63;;;18.00;60.30;;;;;;5053093;28;20044;-87
2021/07/20 06:35:13;;;;;;;12.45;6.53;;;18.00;60.20;;;;;;5056407;28;20025;-87
2021/07/20 06:37:41;;;;;;;12.38;5.80;;;18.10;60.30;;;;;;5056344;28;20036;-87
2021/07/20 06:40:08;;;;;;;11.02;5.38;;;18.20;60.30;;;;;;5057277;28;20108;-87
2021/07/20 06:42:53;;;;;;;12.00;6.28;;;18.20;60.20;;;;;;5056025;28;20549;-86
2021/07/20 06:45:19;;;;;;;11.60;5.80;;;18.30;60.40;;;;;;5056016;28;20055;-87
2021/07/20 06:47:48;;;;;;;11.88;5.53;;;18.40;60.40;;;;;;5040067;28;20044;-89
2021/07/20 06:50:19;;;;;;;10.23;4.95;;;18.50;60.20;;;;;;5057831;28;20048;-87
2021/07/20 06:52:45;;;;;;;14.38;5.70;;;18.50;60.10;;;;;;5056023;28;20106;-87
2021/07/20 06:55:12;;;;;;;10.52;5.10;;;18.60;60.30;;;;;;5056992;28;20133;-87
2021/07/20 06:57:43;;;;;;;10.80;5.00;;;18.60;60.30;;;;;;5040311;28;20124;-87
2021/07/20 07:00:10;;;;;;;11.93;5.07;;;18.80;60.50;;;;;;5056858;28;20032;-88
2021/07/20 07:02:41;;;;;;;11.93;5.32;;;18.80;60.30;;;;;;5056074;28;20116;-88
2021/07/20 07:05:25;;;;;;;10.40;5.32;;;18.90;60.10;;;;;;5056051;28;20021;-88
2021/07/20 07:08:00;;;;;;;11.27;5.35;;;18.90;60.10;;;;;;5040423;28;20120;-87
2021/07/20 07:10:26;;;;;;;10.95;4.70;;;19.10;60.40;;;;;;5056168;28;20021;-86
2021/07/20 07:12:56;;;;;;;11.15;4.80;;;19.10;60.30;;;;;;5045597;28;20037;-85
2021/07/20 07:15:28;;;;;;;9.60;4.60;;;19.30;60.20;;;;;;5051722;28;20025;-85
2021/07/20 07:17:57;;;;;;;10.38;4.68;;;19.40;60.30;;;;;;5054635;28;20029;-86
2021/07/20 07:20:27;;;;;;;10.05;4.68;;;19.50;60.20;;;;;;5055140;28;20021;-85
2021/07/20 07:22:54;;;;;;;11.75;5.40;;;19.60;60.00;;;;;;5055167;28;20025;-85
2021/07/20 07:25:21;;;;;;;10.55;4.53;;;19.80;59.90;;;;;;5055465;28;20022;-87
2021/07/20 07:27:53;;;;;;;11.23;4.40;;;19.80;59.80;;;;;;5038750;28;20025;-89
2021/07/20 07:30:20;;;;;;;11.65;4.60;;;19.90;59.90;;;;;;5054594;28;20067;-89
2021/07/20 07:32:49;;;;;;;8.60;3.85;;;20.10;60.20;;;;;;5055457;28;20037;-90
2021/07/20 07:35:18;;;;;;;9.05;4.75;;;20.20;60.10;;;;;;5055578;28;20059;-90
2021/07/20 07:37:45;;;;;;;10.27;4.57;;;20.40;59.70;;;;;;5055576;28;20025;-90
2021/07/20 07:40:13;;;;;;;10.38;4.68;;;20.40;59.10;;;;;;5055724;28;20021;-90
2021/07/20 07:42:42;;;;;;;11.13;4.95;;;20.40;59.00;;;;;;5055578;28;20036;-90
2021/07/20 07:45:13;;;;;;;10.00;4.72;;;20.30;58.90;;;;;;5054489;28;20028;-89
2021/07/20 07:47:39;;;;;;;11.27;4.60;;;20.40;58.90;;;;;;5055748;28;20053;-89
2021/07/20 07:50:09;;;;;;;10.00;4.82;;;20.30;58.90;;;;;;5054673;28;20021;-91
2021/07/20 07:52:36;;;;;;;13.43;5.03;;;20.40;59.10;;;;;;5055302;28;20064;-89
2021/07/20 07:55:05;;;;;;;9.18;4.20;;;20.40;59.10;;;;;;5055433;28;20529;-90
2021/07/20 07:57:31;;;;;;;10.32;4.95;;;20.50;59.20;;;;;;5039467;28;20071;-91
2021/07/20 07:59:59;;;;;;;10.93;4.60;;;20.50;59.30;;;;;;5055793;28;20111;-90
2021/07/20 08:02:30;;;;;;;10.13;4.88;;;20.70;59.40;;;;;;5055114;28;20389;-90
2021/07/20 08:04:58;;;;;;;12.27;4.30;;;20.90;59.30;;;;;;5055408;28;20014;-89
2021/07/20 08:07:25;;;;;;;10.45;4.55;;;20.90;59.00;;;;;;5054895;28;20183;-90
2021/07/20 08:09:57;;;;;;;10.68;4.05;;;21.00;59.00;;;;;;5055270;28;20461;-90
2021/07/20 08:12:26;;;;;;;10.10;4.50;;;21.10;58.70;;;;;;5055073;28;20033;-90
2021/07/20 08:14:52;;;;;;;11.57;4.65;;;21.10;58.60;;;;;;5038935;28;20036;-90
2021/07/20 08:17:21;;;;;;;9.48;4.10;;;21.10;58.80;;;;;;5055234;28;20033;-89
2021/07/20 08:19:48;;;;;;;12.60;4.32;;;21.20;58.80;;;;;;5054949;28;20096;-90
2021/07/20 08:22:19;;;;;;;10.43;4.78;;;21.40;58.80;;;;;;5055050;28;20107;-90
2021/07/20 08:24:55;;;;;;;9.57;4.30;;;21.50;58.70;;;;;;5054998;28;20033;-89
2021/07/20 08:27:29;;;;;;;11.38;4.57;;;21.50;58.40;;;;;;5054850;28;20481;-90
2021/07/20 08:29:58;;;;;;;9.48;4.20;;;21.60;58.30;;;;;;5054633;28;20099;-90
2021/07/20 08:32:29;;;;;;;9.50;4.40;;;21.70;58.50;;;;;;5054478;28;20131;-90
2021/07/20 08:35:06;;;;;;;9.02;3.80;;;21.80;58.40;;;;;;5054671;28;20599;-90
2021/07/20 08:37:35;;;;;;;12.15;4.43;;;21.90;58.50;;;;;;5054496;28;20025;-90
2021/07/20 08:40:08;;;;;;;11.32;4.07;;;22.00;58.20;;;;;;5054113;28;20496;-90
2021/07/20 08:42:48;;;;;;;9.65;4.63;;;22.10;58.60;;;;;;5053867;28;20028;-90
2021/07/20 08:45:23;;;;;;;10.20;4.20;;;22.30;58.50;;;;;;5054219;28;20021;-90
2021/07/20 08:48:29;;;;;;;10.95;4.20;;;22.50;58.50;;;;;;5054344;28;20017;-90
2021/07/20 08:51:13;;;;;;;11.60;4.15;;;22.80;58.60;;;;;;5054120;28;20064;-90
2021/07/20 08:54:09;;;;;;;10.27;5.40;;;22.90;58.10;;;;;;5054024;28;20032;-90
2021/07/20 08:56:44;;;;;;;9.40;4.15;;;23.10;57.80;;;;;;5053158;28;20032;-89
2021/07/20 08:59:20;;;;;;;9.70;3.92;;;23.20;57.20;;;;;;5053628;28;20115;-90
2021/07/20 09:02:08;;;;;;;9.90;3.90;;;23.20;56.90;;;;;;5054731;28;20068;-91
2021/07/20 09:04:47;;;;;;;9.32;3.97;;;23.20;56.90;;;;;;5054132;28;20120;-91
2021/07/20 09:07:16;;;;;;;10.32;4.45;;;23.30;57.10;;;;;;5054035;28;20056;-91
2021/07/20 09:09:47;;;;;;;6.95;3.67;;;23.40;57.60;;;;;;5054259;28;20028;-91
2021/07/20 09:12:27;;;;;;;9.88;3.90;;;23.70;57.80;;;;;;5053885;28;20029;-91
2021/07/20 09:15:08;;;;;;;9.23;4.00;;;23.90;57.50;;;;;;5053947;28;20032;-91
2021/07/20 09:18:00;;;;;;;9.05;3.60;;;24.10;57.50;;;;;;5053598;28;20025;-90
2021/07/20 09:20:37;;;;;;;9.20;3.92;;;24.50;57.30;;;;;;5053803;28;20119;-91
2021/07/20 09:23:08;;;;;;;9.98;4.32;;;24.60;56.80;;;;;;5053777;28;20021;-91
2021/07/20 09:25:36;;;;;;;8.02;3.50;;;24.80;57.00;;;;;;5053816;28;20082;-90
2021/07/20 09:28:22;;;;;;;8.13;3.50;;;25.10;56.70;;;;;;5053670;28;20125;-91
2021/07/20 09:30:50;;;;;;;9.07;3.60;;;25.30;56.60;;;;;;5054311;28;20108;-91
2021/07/20 09:33:28;;;;;;;11.90;7.68;;;25.40;55.90;;;;;;5037459;28;20126;-91
2021/07/20 09:36:07;;;;;;;9.18;4.28;;;25.50;56.20;;;;;;5053502;28;20055;-90
2021/07/20 09:39:06;;;;;;;9.48;4.20;;;25.60;55.70;;;;;;5053473;28;20047;-91
2021/07/20 09:41:54;;;;;;;8.02;3.80;;;25.70;55.40;;;;;;5053160;28;20530;-91
2021/07/20 09:44:36;;;;;;;9.77;4.40;;;25.80;55.70;;;;;;5053376;28;20422;-91
2021/07/20 09:47:14;;;;;;;8.40;4.38;;;25.80;54.90;;;;;;5053167;28;20075;-90
2021/07/20 09:50:05;;;;;;;9.75;4.13;;;25.90;55.20;;;;;;5053619;28;20021;-90
2021/07/20 09:52:57;;;;;;;9.60;3.97;;;26.00;54.70;;;;;;5053113;28;20233;-91
2021/07/20 09:55:58;;;;;;;12.70;4.30;;;26.00;54.30;;;;;;5053072;28;20021;-91
2021/07/20 09:58:46;;;;;;;10.65;4.22;;;26.00;55.30;;;;;;5053370;28;20545;-91
2021/07/20 10:01:29;;;;;;;9.57;4.07;;;26.00;54.30;;;;;;5053380;28;20045;-91
2021/07/20 10:04:11;;;;;;;9.48;3.95;;;26.00;53.70;;;;;;5038295;28;20385;-90
2021/07/20 10:06:55;;;;;;;9.15;4.35;;;26.00;53.80;;;;;;5057778;28;20021;-90
2021/07/20 10:09:21;;;;;;;;;;;26.10;54.50;;;;;;5066628;28;20017;-91
2021/07/20 10:12:10;;;;;;;10.00;4.40;;;26.30;54.90;;;;;;5063042;28;20257;-90
2021/07/20 10:15:13;;;;;;;8.90;3.97;;;26.60;54.50;;;;;;5057283;28;20086;-90
2021/07/20 10:18:11;;;;;;;9.85;4.32;;;26.70;53.70;;;;;;5057454;28;20044;-90
2021/07/20 10:20:43;;;;;;;9.27;4.15;;;26.70;53.80;;;;;;5056598;28;20017;-90
2021/07/20 10:23:19;;;;;;;10.07;4.55;;;27.00;54.30;;;;;;5057043;28;20021;-91
2021/07/20 10:25:49;;;;;;;9.80;4.60;;;27.20;54.20;;;;;;5058326;28;20108;-90
2021/07/20 10:28:25;;;;;;;12.40;4.20;;;27.40;53.40;;;;;;5059276;28;20493;-90
2021/07/20 10:31:21;;;;;;;8.30;3.88;;;27.70;53.50;;;;;;5059451;28;20112;-91
2021/07/20 10:34:05;;;;;;;9.18;4.13;;;28.00;53.00;;;;;;5059242;28;20040;-90
2021/07/20 10:36:56;;;;;;;9.73;4.05;;;28.00;52.10;;;;;;5058603;28;20103;-92
2021/07/20 10:39:41;;;;;;;11.98;3.97;;;28.00;51.90;;;;;;5054079;28;20025;-91
2021/07/20 10:42:09;;;;;;;;;;;27.90;51.90;;;;;;5058053;28;20029;-90
2021/07/20 10:44:55;;;;;;;8.60;4.07;;;27.80;52.20;;;;;;5056964;28;19936;-90
2021/07/20 10:47:29;;;;;;;9.95;4.32;;;27.90;51.90;;;;;;5057054;28;20021;-91
2021/07/20 10:50:20;;;;;;;9.18;4.30;;;28.20;52.80;;;;;;5056416;28;20083;-91
2021/07/20 10:53:16;;;;;;;11.27;4.65;;;28.60;52.90;;;;;;5056857;28;20149;-91
2021/07/20 10:55:59;;;;;;;9.43;4.30;;;28.80;51.80;;;;;;5056798;28;20119;-91
2021/07/20 10:58:28;;;;;;;8.68;4.18;;;28.70;50.50;;;;;;5056542;28;20484;-91
2021/07/20 11:01:17;;;;;;;8.63;4.40;;;28.60;50.80;;;;;;5056247;28;20036;-91
2021/07/20 11:04:20;;;;;;;9.50;4.20;;;28.40;50.20;;;;;;5053305;28;20039;-91
2021/07/20 11:06:48;;;;;;;10.65;4.28;;;28.20;50.10;;;;;;5057159;28;20031;-91
2021/07/20 11:09:19;;;;;;;9.80;4.05;;;28.30;51.00;;;;;;5058600;28;20373;-91
2021/07/20 11:11:51;;;;;;;12.07;5.18;;;28.50;51.00;;;;;;5058336;28;20132;-90
2021/07/20 11:14:26;;;;;;;8.15;3.88;;;28.80;51.30;;;;;;5056757;28;20017;-92
2021/07/20 11:16:57;;;;;;;8.35;4.00;;;29.10;51.40;;;;;;5056727;28;20029;-92
2021/07/20 11:19:25;;;;;;;8.88;3.80;;;29.40;51.20;;;;;;5055587;28;20028;-91
2021/07/20 11:21:52;;;;;;;8.27;4.30;;;29.60;51.30;;;;;;5056103;28;20032;-91
2021/07/20 11:24:21;;;;;;;8.80;4.38;;;30.00;52.10;;;;;;5056777;28;20534;-91
2021/07/20 11:26:46;;;;;;;9.23;4.30;;;30.60;52.50;;;;;;5040433;28;20558;-91
2021/07/20 11:29:17;;;;;;;8.95;4.07;;;31.40;53.20;;;;;;5056342;28;20021;-91
2021/07/20 11:31:51;;;;;;;10.38;5.32;;;32.10;52.30;;;;;;5057134;28;20032;-90
2021/07/20 11:34:54;;;;;;;9.95;4.20;;;32.70;52.10;;;;;;5056415;28;20024;-91
2021/07/20 11:37:35;;;;;;;8.35;3.72;;;33.50;53.00;;;;;;5045821;28;20029;-91
2021/07/20 11:40:08;;;;;;;8.88;3.78;;;34.10;51.30;;;;;;5056162;28;20075;-91
2021/07/20 11:42:53;;;;;;;10.07;4.50;;;34.60;51.30;;;;;;5056258;28;20049;-91
2021/07/20 11:45:20;;;;;;;11.82;4.75;;;34.90;50.20;;;;;;5059802;28;20029;-91
2021/07/20 11:48:06;;;;;;;8.27;4.32;;;35.30;50.50;;;;;;5061993;28;20029;-91
2021/07/20 11:51:00;;;;;;;9.85;5.93;;;35.60;48.30;;;;;;5060983;28;20132;-91
2021/07/20 11:53:39;;;;;;;9.45;4.40;;;35.00;44.90;;;;;;5063929;28;20039;-90
2021/07/20 11:56:25;;;;;;;7.20;3.67;;;34.20;45.90;;;;;;5059936;28;20029;-90
2021/07/20 11:59:05;;;;;;;9.55;3.97;;;34.30;45.30;;;;;;5057379;28;20036;-91
2021/07/20 12:01:34;;;;;;;7.95;4.18;;;33.60;43.40;;;;;;5055914;28;20025;-90
2021/07/20 12:04:18;;;;;;;9.43;5.00;;;33.70;47.90;;;;;;5055564;28;20029;-91
2021/07/20 12:07:13;;;;;;;8.35;3.95;;;34.90;49.20;;;;;;5055306;28;20480;-92
2021/07/20 12:10:09;;;;;;;8.20;4.13;;;36.20;49.30;;;;;;5055240;28;20025;-92
2021/07/20 12:12:44;;;;;;;9.35;5.35;;;37.40;49.40;;;;;;5041119;28;20055;-92
2021/07/20 12:15:12;;;;;;;8.95;4.38;;;38.50;47.50;;;;;;5057770;28;20017;-92
2021/07/20 12:17:42;;;;;;;6.90;3.35;;;39.30;46.00;;;;;;5057067;28;20028;-92
2021/07/20 12:20:11;;;;;;;8.15;3.63;;;40.00;45.20;;;;;;5057622;28;20021;-92
2021/07/20 12:22:39;;;;;;;8.10;3.83;;;40.40;44.10;;;;;;5055776;28;20032;-92
2021/07/20 12:25:07;;;;;;;8.70;3.72;;;40.80;44.20;;;;;;5055809;28;20068;-92
2021/07/20 12:27:36;;;;;;;7.43;3.90;;;40.30;39.10;;;;;;5056229;28;20115;-92
2021/07/20 12:30:10;;;;;;;7.85;4.03;;;38.90;37.40;;;;;;5059009;28;20024;-92
2021/07/20 12:32:37;;;;;;;8.10;3.72;;;38.90;42.00;;;;;;5056589;28;20033;-91
2021/07/20 12:35:07;;;;;;;9.48;4.18;;;39.10;42.00;;;;;;5055749;28;20465;-92
2021/07/20 12:37:33;;;;;;;8.55;3.90;;;39.60;42.60;;;;;;5056371;28;20039;-92
2021/07/20 12:39:59;;;;;;;8.45;3.85;;;40.60;42.60;;;;;;5055974;28;20442;-93
2021/07/20 12:42:39;;;;;;;7.57;3.55;;;41.60;42.10;;;;;;5056248;28;20035;-92
2021/07/20 12:45:10;;;;;;;7.88;3.78;;;42.80;42.50;;;;;;5071436;28;20029;-84
2021/07/20 12:47:44;;;;;;;6.00;3.28;;;43.60;41.80;;;;;;5079123;28;20017;-83
2021/07/20 12:50:13;;;;;;;7.10;4.03;;;43.50;37.90;;;;;;5058741;28;20029;-92
2021/07/20 12:52:42;;;;;;;7.82;3.65;;;43.10;39.30;;;;;;5071098;28;20040;-91
2021/07/20 12:55:20;;;;;;;7.88;3.58;;;42.50;34.80;;;;;;5070963;28;20029;-91
2021/07/20 12:58:00;;;;;;;8.63;4.03;;;41.10;35.80;;;;;;5066557;28;20033;-92
2021/07/20 13:00:29;;;;;;;8.52;4.15;;;41.90;38.90;;;;;;5061834;28;20029;-93
2021/07/20 13:03:02;;;;;;;7.25;3.80;;;43.10;37.80;;;;;;5057258;28;20029;-91
2021/07/20 13:05:32;;;;;;;7.78;4.20;;;44.00;37.00;;;;;;5057535;28;20017;-93
2021/07/20 13:08:01;;;;;;;7.20;3.90;;;44.90;36.70;;;;;;5056476;28;20052;-93
2021/07/20 13:10:32;;;;;;;7.35;3.72;;;45.70;36.10;;;;;;5039950;28;20029;-92